PWSweather.com
Personal Weather Stations
Station Observations
KCOGRAND2
Redlands, Southcamp Road & Dakota Circle, Grand Junction, CO 81507

Redlands, Southcamp Road & Dakota CircleGrand Junction, CO 81507

Lat: 39.055, Lon: -108.637

Elevation: 4870

Station Type: RadioShack WX200

High Low Average
Temperature 71.6°F22.0°C 43.9°F6.6°C 56.6°F13.7°C
Dew Point 33.1°F0.6°C 7.9°F-13.4°C 25.8°F-3.4°C
Winds 12.0 mph 19.3 kmh Calm Calm 4.0 mph SSE6.4 kmh SSE
Wind Gusts 18.6 mph29.9 kmh -- 7.0 mph11.3 kmh
Humidity 53% 11% 38%
Pressure 25.25 in855.1 mb 25.13 in851.0 mb -
Precipitation 0.00 in0.0 mm - -
Hour Temp Dew Point Humidity Winds Wind Gusts Pressure Precip Precip Rate Daily Precip Total
12:03 AM 50.4°F10.2°C 27.0°F-2.8°C 40% 5.0 mph SE8.0 kmh SE 7.4 mph11.9 kmh 25.16 in852.0 mb 0.00 in0.0 mm 0.00 in/hr0.0 mm/hr 0.00 in0.0 mm
12:08 AM 50.0°F10.0°C 27.3°F-2.6°C 41% 3.0 mph ESE4.8 kmh ESE 4.9 mph7.9 kmh 25.16 in852.0 mb 0.00 in0.0 mm 0.00 in/hr0.0 mm/hr 0.00 in0.0 mm
12:13 AM 50.4°F10.2°C 27.5°F-2.5°C 41% 3.0 mph E4.8 kmh E 4.9 mph7.9 kmh 25.16 in852.0 mb 0.00 in0.0 mm 0.00 in/hr0.0 mm/hr 0.00 in0.0 mm
12:18 AM 50.7°F10.4°C 27.3°F-2.6°C 40% 3.0 mph ESE4.8 kmh ESE 4.5 mph7.2 kmh 25.16 in852.0 mb 0.00 in0.0 mm 0.00 in/hr0.0 mm/hr 0.00 in0.0 mm
12:23 AM 50.5°F10.3°C 26.6°F-3.0°C 39% 3.0 mph ESE4.8 kmh ESE 4.9 mph7.9 kmh 25.16 in852.0 mb 0.00 in0.0 mm 0.00 in/hr0.0 mm/hr 0.00 in0.0 mm
12:28 AM 50.0°F10.0°C 26.1°F-3.3°C 39% 3.0 mph ESE4.8 kmh ESE 4.5 mph7.2 kmh 25.19 in853.0 mb 0.00 in0.0 mm 0.00 in/hr0.0 mm/hr 0.00 in0.0 mm
12:34 AM 49.5°F9.7°C 26.2°F-3.2°C 40% 3.0 mph ESE4.8 kmh ESE 4.0 mph6.4 kmh 25.19 in853.0 mb 0.00 in0.0 mm 0.00 in/hr0.0 mm/hr 0.00 in0.0 mm
12:39 AM 49.5°F9.7°C 26.2°F-3.2°C 40% 2.0 mph ESE3.2 kmh ESE 3.6 mph5.8 kmh 25.19 in853.0 mb 0.00 in0.0 mm 0.00 in/hr0.0 mm/hr 0.00 in0.0 mm
12:44 AM 49.6°F9.8°C 25.7°F-3.5°C 39% 2.0 mph ESE3.2 kmh ESE 4.5 mph7.2 kmh 25.19 in853.0 mb 0.00 in0.0 mm 0.00 in/hr0.0 mm/hr 0.00 in0.0 mm
12:49 AM 49.6°F9.8°C 25.2°F-3.8°C 38% 3.0 mph ESE4.8 kmh ESE 5.8 mph9.3 kmh 25.19 in853.0 mb 0.00 in0.0 mm 0.00 in/hr0.0 mm/hr 0.00 in0.0 mm
12:54 AM 49.5°F9.7°C 25.0°F-3.9°C 38% 4.0 mph ESE6.4 kmh ESE 5.4 mph8.7 kmh 25.19 in853.0 mb 0.00 in0.0 mm 0.00 in/hr0.0 mm/hr 0.00 in0.0 mm
12:59 AM 48.6°F9.2°C 24.8°F-4.0°C 39% 4.0 mph SE6.4 kmh SE 6.3 mph10.1 kmh 25.19 in853.0 mb 0.00 in0.0 mm 0.00 in/hr0.0 mm/hr 0.00 in0.0 mm
01:04 AM 47.1°F8.4°C 24.6°F-4.1°C 41% 3.0 mph SE4.8 kmh SE 4.0 mph6.4 kmh 25.19 in853.0 mb 0.00 in0.0 mm 0.00 in/hr0.0 mm/hr 0.00 in0.0 mm
01:09 AM 47.3°F8.5°C 24.8°F-4.0°C 41% 2.0 mph SE3.2 kmh SE 3.6 mph5.8 kmh 25.19 in853.0 mb 0.00 in0.0 mm 0.00 in/hr0.0 mm/hr 0.00 in0.0 mm
01:14 AM 47.8°F8.8°C 25.3°F-3.7°C 41% 1.0 mph SE1.6 kmh SE 3.6 mph5.8 kmh 25.19 in853.0 mb 0.00 in0.0 mm 0.00 in/hr0.0 mm/hr 0.00 in0.0 mm
01:19 AM 47.1°F8.4°C 25.2°F-3.8°C 42% Calm Calm -- 25.19 in853.0 mb 0.00 in0.0 mm 0.00 in/hr0.0 mm/hr 0.00 in0.0 mm
01:24 AM 47.5°F8.6°C 25.0°F-3.9°C 41% 1.0 mph SSE1.6 kmh SSE 4.5 mph7.2 kmh 25.19 in853.0 mb 0.00 in0.0 mm 0.00 in/hr0.0 mm/hr 0.00 in0.0 mm
01:29 AM 48.2°F9.0°C 25.7°F-3.5°C 41% 2.0 mph SW3.2 kmh SW 5.8 mph9.3 kmh 25.19 in853.0 mb 0.00 in0.0 mm 0.00 in/hr0.0 mm/hr 0.00 in0.0 mm
01:34 AM 48.2°F9.0°C 25.0°F-3.9°C 40% 2.0 mph WSW3.2 kmh WSW 4.0 mph6.4 kmh 25.19 in853.0 mb 0.00 in0.0 mm 0.00 in/hr0.0 mm/hr 0.00 in0.0 mm
01:39 AM 48.6°F9.2°C 25.3°F-3.7°C 40% 1.0 mph WSW1.6 kmh WSW 4.5 mph7.2 kmh 25.19 in853.0 mb 0.00 in0.0 mm 0.00 in/hr0.0 mm/hr 0.00 in0.0 mm
01:44 AM 48.0°F8.9°C 24.8°F-4.0°C 40% Calm Calm 3.6 mph5.8 kmh 25.19 in853.0 mb 0.00 in0.0 mm 0.00 in/hr0.0 mm/hr 0.00 in0.0 mm
01:49 AM 47.5°F8.6°C 24.4°F-4.2°C 40% Calm Calm 3.6 mph5.8 kmh 25.19 in853.0 mb 0.00 in0.0 mm 0.00 in/hr0.0 mm/hr 0.00 in0.0 mm
01:54 AM 47.3°F8.5°C 24.8°F-4.0°C 41% Calm Calm 3.1 mph5.0 kmh 25.19 in853.0 mb 0.00 in0.0 mm 0.00 in/hr0.0 mm/hr 0.00 in0.0 mm
01:59 AM 47.1°F8.4°C 24.6°F-4.1°C 41% Calm Calm 3.6 mph5.8 kmh 25.19 in853.0 mb 0.00 in0.0 mm 0.00 in/hr0.0 mm/hr 0.00 in0.0 mm
02:04 AM 46.9°F8.3°C 25.0°F-3.9°C 42% 1.0 mph WSW1.6 kmh WSW 5.8 mph9.3 kmh 25.19 in853.0 mb 0.00 in0.0 mm 0.00 in/hr0.0 mm/hr 0.00 in0.0 mm
02:09 AM 47.1°F8.4°C 25.2°F-3.8°C 42% 2.0 mph SW3.2 kmh SW 5.8 mph9.3 kmh 25.19 in853.0 mb 0.00 in0.0 mm 0.00 in/hr0.0 mm/hr 0.00 in0.0 mm
02:14 AM 46.9°F8.3°C 25.0°F-3.9°C 42% 2.0 mph SW3.2 kmh SW 4.5 mph7.2 kmh 25.19 in853.0 mb 0.00 in0.0 mm 0.00 in/hr0.0 mm/hr 0.00 in0.0 mm
02:19 AM 46.9°F8.3°C 25.7°F-3.5°C 43% 2.0 mph WSW3.2 kmh WSW 4.9 mph7.9 kmh 25.19 in853.0 mb 0.00 in0.0 mm 0.00 in/hr0.0 mm/hr 0.00 in0.0 mm
02:24 AM 46.8°F8.2°C 25.5°F-3.6°C 43% 1.0 mph WSW1.6 kmh WSW 3.6 mph5.8 kmh 25.19 in853.0 mb 0.00 in0.0 mm 0.00 in/hr0.0 mm/hr 0.00 in0.0 mm
02:29 AM 46.8°F8.2°C 25.5°F-3.6°C 43% Calm Calm 3.1 mph5.0 kmh 25.19 in853.0 mb 0.00 in0.0 mm 0.00 in/hr0.0 mm/hr 0.00 in0.0 mm
02:34 AM 46.9°F8.3°C 25.7°F-3.5°C 43% 1.0 mph WSW1.6 kmh WSW 4.0 mph6.4 kmh 25.19 in853.0 mb 0.00 in0.0 mm 0.00 in/hr0.0 mm/hr 0.00 in0.0 mm
02:39 AM 47.1°F8.4°C 25.7°F-3.5°C 43% 1.0 mph WSW1.6 kmh WSW -- 25.19 in853.0 mb 0.00 in0.0 mm 0.00 in/hr0.0 mm/hr 0.00 in0.0 mm
02:44 AM 47.3°F8.5°C 25.9°F-3.4°C 43% Calm Calm 3.6 mph5.8 kmh 25.19 in853.0 mb 0.00 in0.0 mm 0.00 in/hr0.0 mm/hr 0.00 in0.0 mm
02:50 AM 47.1°F8.4°C 25.7°F-3.5°C 43% 1.0 mph WSW1.6 kmh WSW 4.9 mph7.9 kmh 25.19 in853.0 mb 0.00 in0.0 mm 0.00 in/hr0.0 mm/hr 0.00 in0.0 mm
02:55 AM 46.6°F8.1°C 25.9°F-3.4°C 44% Calm Calm -- 25.19 in853.0 mb 0.00 in0.0 mm 0.00 in/hr0.0 mm/hr 0.00 in0.0 mm
03:00 AM 46.6°F8.1°C 26.4°F-3.1°C 45% Calm Calm -- 25.19 in853.0 mb 0.00 in0.0 mm 0.00 in/hr0.0 mm/hr 0.00 in0.0 mm
03:05 AM 47.1°F8.4°C 27.5°F-2.5°C 46% Calm Calm -- 25.19 in853.0 mb 0.00 in0.0 mm 0.00 in/hr0.0 mm/hr 0.00 in0.0 mm
03:10 AM 46.8°F8.2°C 27.1°F-2.7°C 46% Calm Calm -- 25.19 in853.0 mb 0.00 in0.0 mm 0.00 in/hr0.0 mm/hr 0.00 in0.0 mm
03:15 AM 46.6°F8.1°C 27.0°F-2.8°C 46% Calm Calm -- 25.19 in853.0 mb 0.00 in0.0 mm 0.00 in/hr0.0 mm/hr 0.00 in0.0 mm
03:20 AM 46.6°F8.1°C 27.5°F-2.5°C 47% Calm Calm 3.6 mph5.8 kmh 25.19 in853.0 mb 0.00 in0.0 mm 0.00 in/hr0.0 mm/hr 0.00 in0.0 mm
03:25 AM 46.6°F8.1°C 27.5°F-2.5°C 47% Calm Calm -- 25.19 in853.0 mb 0.00 in0.0 mm 0.00 in/hr0.0 mm/hr 0.00 in0.0 mm
03:30 AM 46.2°F7.9°C 27.1°F-2.7°C 47% Calm Calm -- 25.19 in853.0 mb 0.00 in0.0 mm 0.00 in/hr0.0 mm/hr 0.00 in0.0 mm
03:35 AM 46.2°F7.9°C 27.1°F-2.7°C 47% Calm Calm -- 25.19 in853.0 mb 0.00 in0.0 mm 0.00 in/hr0.0 mm/hr 0.00 in0.0 mm
03:40 AM 46.0°F7.8°C 27.5°F-2.5°C 48% Calm Calm -- 25.19 in853.0 mb 0.00 in0.0 mm 0.00 in/hr0.0 mm/hr 0.00 in0.0 mm
03:45 AM 45.7°F7.6°C 27.1°F-2.7°C 48% Calm Calm 4.9 mph7.9 kmh 25.19 in853.0 mb 0.00 in0.0 mm 0.00 in/hr0.0 mm/hr 0.00 in0.0 mm
03:50 AM 44.8°F7.1°C 26.8°F-2.9°C 49% 2.0 mph W3.2 kmh W 4.5 mph7.2 kmh 25.19 in853.0 mb 0.00 in0.0 mm 0.00 in/hr0.0 mm/hr 0.00 in0.0 mm
03:55 AM 44.2°F6.8°C 26.8°F-2.9°C 50% 3.0 mph W4.8 kmh W 5.4 mph8.7 kmh 25.19 in853.0 mb 0.00 in0.0 mm 0.00 in/hr0.0 mm/hr 0.00 in0.0 mm
04:00 AM 44.4°F6.9°C 27.0°F-2.8°C 50% 1.0 mph W1.6 kmh W -- 25.19 in853.0 mb 0.00 in0.0 mm 0.00 in/hr0.0 mm/hr 0.00 in0.0 mm
04:05 AM 44.6°F7.0°C 27.1°F-2.7°C 50% Calm Calm -- 25.19 in853.0 mb 0.00 in0.0 mm 0.00 in/hr0.0 mm/hr 0.00 in0.0 mm
04:10 AM 45.1°F7.3°C 27.7°F-2.4°C 50% 1.0 mph WNW1.6 kmh WNW 5.4 mph8.7 kmh 25.19 in853.0 mb 0.00 in0.0 mm 0.00 in/hr0.0 mm/hr 0.00 in0.0 mm
04:15 AM 45.5°F7.5°C 28.0°F-2.2°C 50% 3.0 mph WNW4.8 kmh WNW 5.8 mph9.3 kmh 25.19 in853.0 mb 0.00 in0.0 mm 0.00 in/hr0.0 mm/hr 0.00 in0.0 mm
04:20 AM 45.5°F7.5°C 27.5°F-2.5°C 49% 4.0 mph WNW6.4 kmh WNW 4.9 mph7.9 kmh 25.19 in853.0 mb 0.00 in0.0 mm 0.00 in/hr0.0 mm/hr 0.00 in0.0 mm
04:25 AM 45.7°F7.6°C 27.7°F-2.4°C 49% 2.0 mph NW3.2 kmh NW 3.6 mph5.8 kmh 25.19 in853.0 mb 0.00 in0.0 mm 0.00 in/hr0.0 mm/hr 0.00 in0.0 mm
04:30 AM 45.5°F7.5°C 27.5°F-2.5°C 49% Calm Calm -- 25.19 in853.0 mb 0.00 in0.0 mm 0.00 in/hr0.0 mm/hr 0.00 in0.0 mm
04:35 AM 45.3°F7.4°C 27.3°F-2.6°C 49% Calm Calm -- 25.19 in853.0 mb 0.00 in0.0 mm 0.00 in/hr0.0 mm/hr 0.00 in0.0 mm
04:40 AM 45.1°F7.3°C 27.1°F-2.7°C 49% Calm Calm -- 25.22 in854.0 mb 0.00 in0.0 mm 0.00 in/hr0.0 mm/hr 0.00 in0.0 mm
04:45 AM 45.1°F7.3°C 27.7°F-2.4°C 50% Calm Calm -- 25.22 in854.0 mb 0.00 in0.0 mm 0.00 in/hr0.0 mm/hr 0.00 in0.0 mm
04:50 AM 44.2°F6.8°C 26.8°F-2.9°C 50% Calm Calm -- 25.22 in854.0 mb 0.00 in0.0 mm 0.00 in/hr0.0 mm/hr 0.00 in0.0 mm
04:55 AM 43.9°F6.6°C 27.0°F-2.8°C 51% Calm Calm -- 25.22 in854.0 mb 0.00 in0.0 mm 0.00 in/hr0.0 mm/hr 0.00 in0.0 mm
05:00 AM 44.8°F7.1°C 28.2°F-2.1°C 52% Calm Calm 4.5 mph7.2 kmh 25.22 in854.0 mb 0.00 in0.0 mm 0.00 in/hr0.0 mm/hr 0.00 in0.0 mm
05:05 AM 45.0°F7.2°C 27.9°F-2.3°C 51% Calm Calm 4.9 mph7.9 kmh 25.22 in854.0 mb 0.00 in0.0 mm 0.00 in/hr0.0 mm/hr 0.00 in0.0 mm
05:10 AM 46.2°F7.9°C 28.6°F-1.9°C 50% 1.0 mph NNE1.6 kmh NNE 4.5 mph7.2 kmh 25.22 in854.0 mb 0.00 in0.0 mm 0.00 in/hr0.0 mm/hr 0.00 in0.0 mm
05:15 AM 46.6°F8.1°C 28.0°F-2.2°C 48% 3.0 mph ENE4.8 kmh ENE 5.8 mph9.3 kmh 25.22 in854.0 mb 0.00 in0.0 mm 0.00 in/hr0.0 mm/hr 0.00 in0.0 mm
05:20 AM 46.4°F8.0°C 27.3°F-2.6°C 47% 4.0 mph ESE6.4 kmh ESE 6.3 mph10.1 kmh 25.22 in854.0 mb 0.00 in0.0 mm 0.00 in/hr0.0 mm/hr 0.00 in0.0 mm
05:25 AM 46.6°F8.1°C 27.5°F-2.5°C 47% 4.0 mph SE6.4 kmh SE 5.4 mph8.7 kmh 25.22 in854.0 mb 0.00 in0.0 mm 0.00 in/hr0.0 mm/hr 0.00 in0.0 mm
05:30 AM 46.2°F7.9°C 27.7°F-2.4°C 48% 4.0 mph SE6.4 kmh SE 5.4 mph8.7 kmh 25.22 in854.0 mb 0.00 in0.0 mm 0.00 in/hr0.0 mm/hr 0.00 in0.0 mm
05:35 AM 46.2°F7.9°C 27.7°F-2.4°C 48% 3.0 mph SE4.8 kmh SE 4.9 mph7.9 kmh 25.22 in854.0 mb 0.00 in0.0 mm 0.00 in/hr0.0 mm/hr 0.00 in0.0 mm
05:40 AM 46.6°F8.1°C 28.0°F-2.2°C 48% 3.0 mph ESE4.8 kmh ESE 5.8 mph9.3 kmh 25.22 in854.0 mb 0.00 in0.0 mm 0.00 in/hr0.0 mm/hr 0.00 in0.0 mm
05:45 AM 46.4°F8.0°C 27.3°F-2.6°C 47% 2.0 mph ESE3.2 kmh ESE 5.4 mph8.7 kmh 25.22 in854.0 mb 0.00 in0.0 mm 0.00 in/hr0.0 mm/hr 0.00 in0.0 mm
05:50 AM 46.6°F8.1°C 27.5°F-2.5°C 47% 3.0 mph ESE4.8 kmh ESE 6.3 mph10.1 kmh 25.22 in854.0 mb 0.00 in0.0 mm 0.00 in/hr0.0 mm/hr 0.00 in0.0 mm
05:55 AM 46.8°F8.2°C 27.7°F-2.4°C 47% 4.0 mph ESE6.4 kmh ESE 5.8 mph9.3 kmh 25.22 in854.0 mb 0.00 in0.0 mm 0.00 in/hr0.0 mm/hr 0.00 in0.0 mm
06:00 AM 46.6°F8.1°C 27.5°F-2.5°C 47% 4.0 mph SE6.4 kmh SE 6.9 mph11.1 kmh 25.22 in854.0 mb 0.00 in0.0 mm 0.00 in/hr0.0 mm/hr 0.00 in0.0 mm
06:05 AM 46.9°F8.3°C 27.9°F-2.3°C 47% 4.0 mph SE6.4 kmh SE 5.4 mph8.7 kmh 25.22 in854.0 mb 0.00 in0.0 mm 0.00 in/hr0.0 mm/hr 0.00 in0.0 mm
06:10 AM 47.7°F8.7°C 27.9°F-2.3°C 46% 4.0 mph SE6.4 kmh SE 5.4 mph8.7 kmh 25.22 in854.0 mb 0.00 in0.0 mm 0.00 in/hr0.0 mm/hr 0.00 in0.0 mm
06:15 AM 48.6°F9.2°C 28.2°F-2.1°C 45% 4.0 mph ESE6.4 kmh ESE 5.8 mph9.3 kmh 25.22 in854.0 mb 0.00 in0.0 mm 0.00 in/hr0.0 mm/hr 0.00 in0.0 mm
06:20 AM 49.1°F9.5°C 27.5°F-2.5°C 43% 5.0 mph ESE8.0 kmh ESE 5.8 mph9.3 kmh 25.22 in854.0 mb 0.00 in0.0 mm 0.00 in/hr0.0 mm/hr 0.00 in0.0 mm
06:25 AM 50.0°F10.0°C 27.9°F-2.3°C 42% 5.0 mph SE8.0 kmh SE 6.7 mph10.8 kmh 25.22 in854.0 mb 0.00 in0.0 mm 0.00 in/hr0.0 mm/hr 0.00 in0.0 mm
06:30 AM 50.5°F10.3°C 27.1°F-2.7°C 40% 4.0 mph SE6.4 kmh SE 5.8 mph9.3 kmh 25.22 in854.0 mb 0.00 in0.0 mm 0.00 in/hr0.0 mm/hr 0.00 in0.0 mm
06:35 AM 51.1°F10.6°C 28.8°F-1.8°C 42% 3.0 mph SE4.8 kmh SE 4.5 mph7.2 kmh 25.22 in854.0 mb 0.00 in0.0 mm 0.00 in/hr0.0 mm/hr 0.00 in0.0 mm
06:40 AM 52.7°F11.5°C 30.9°F-0.6°C 43% 1.0 mph SE1.6 kmh SE 3.1 mph5.0 kmh 25.22 in854.0 mb 0.00 in0.0 mm 0.00 in/hr0.0 mm/hr 0.00 in0.0 mm
06:45 AM 53.8°F12.1°C 29.5°F-1.4°C 39% Calm Calm 3.6 mph5.8 kmh 25.22 in854.0 mb 0.00 in0.0 mm 0.00 in/hr0.0 mm/hr 0.00 in0.0 mm
06:51 AM 54.9°F12.7°C 29.1°F-1.6°C 37% 1.0 mph ESE1.6 kmh ESE 3.6 mph5.8 kmh 25.22 in854.0 mb 0.00 in0.0 mm 0.00 in/hr0.0 mm/hr 0.00 in0.0 mm
06:56 AM 55.6°F13.1°C 29.1°F-1.6°C 36% 1.0 mph E1.6 kmh E 4.0 mph6.4 kmh 25.22 in854.0 mb 0.00 in0.0 mm 0.00 in/hr0.0 mm/hr 0.00 in0.0 mm
07:01 AM 51.1°F10.6°C 31.1°F-0.5°C 46% 4.0 mph E6.4 kmh E 8.3 mph13.4 kmh 25.22 in854.0 mb 0.00 in0.0 mm 0.00 in/hr0.0 mm/hr 0.00 in0.0 mm
07:06 AM 49.5°F9.7°C 33.1°F0.6°C 53% 6.0 mph NE9.7 kmh NE 8.3 mph13.4 kmh 25.22 in854.0 mb 0.00 in0.0 mm 0.00 in/hr0.0 mm/hr 0.00 in0.0 mm
07:11 AM 49.1°F9.5°C 32.7°F0.4°C 53% 7.0 mph NNE11.3 kmh NNE 8.7 mph14.0 kmh 25.25 in855.1 mb 0.00 in0.0 mm 0.00 in/hr0.0 mm/hr 0.00 in0.0 mm
07:16 AM 50.2°F10.1°C 32.2°F0.1°C 50% 7.0 mph NNE11.3 kmh NNE 9.2 mph14.8 kmh 25.25 in855.1 mb 0.00 in0.0 mm 0.00 in/hr0.0 mm/hr 0.00 in0.0 mm
07:21 AM 51.3°F10.7°C 32.2°F0.1°C 48% 6.0 mph NE9.7 kmh NE 8.7 mph14.0 kmh 25.25 in855.1 mb 0.00 in0.0 mm 0.00 in/hr0.0 mm/hr 0.00 in0.0 mm
07:26 AM 51.4°F10.8°C 31.3°F-0.4°C 46% 6.0 mph ENE9.7 kmh ENE 6.9 mph11.1 kmh 25.25 in855.1 mb 0.00 in0.0 mm 0.00 in/hr0.0 mm/hr 0.00 in0.0 mm
07:31 AM 52.2°F11.2°C 31.5°F-0.3°C 45% 5.0 mph ENE8.0 kmh ENE 6.9 mph11.1 kmh 25.25 in855.1 mb 0.00 in0.0 mm 0.00 in/hr0.0 mm/hr 0.00 in0.0 mm
07:36 AM 52.0°F11.1°C 32.9°F0.5°C 48% 4.0 mph NE6.4 kmh NE 8.3 mph13.4 kmh 25.25 in855.1 mb 0.00 in0.0 mm 0.00 in/hr0.0 mm/hr 0.00 in0.0 mm
07:41 AM 51.8°F11.0°C 31.1°F-0.5°C 45% 4.0 mph NNW6.4 kmh NNW 6.3 mph10.1 kmh 25.25 in855.1 mb 0.00 in0.0 mm 0.00 in/hr0.0 mm/hr 0.00 in0.0 mm
07:46 AM 54.0°F12.2°C 32.5°F0.3°C 44% 2.0 mph NW3.2 kmh NW 3.6 mph5.8 kmh 25.25 in855.1 mb 0.00 in0.0 mm 0.00 in/hr0.0 mm/hr 0.00 in0.0 mm
07:51 AM 54.0°F12.2°C 29.7°F-1.3°C 39% 2.0 mph N3.2 kmh N 5.8 mph9.3 kmh 25.25 in855.1 mb 0.00 in0.0 mm 0.00 in/hr0.0 mm/hr 0.00 in0.0 mm
07:56 AM 54.9°F12.7°C 29.7°F-1.3°C 38% 4.0 mph ENE6.4 kmh ENE 6.3 mph10.1 kmh 25.25 in855.1 mb 0.00 in0.0 mm 0.00 in/hr0.0 mm/hr 0.00 in0.0 mm
08:02 AM 54.1°F12.3°C 28.4°F-2.0°C 37% 4.0 mph E6.4 kmh E 6.3 mph10.1 kmh 25.25 in855.1 mb 0.00 in0.0 mm 0.00 in/hr0.0 mm/hr 0.00 in0.0 mm
08:07 AM 55.0°F12.8°C 28.6°F-1.9°C 36% 4.0 mph E6.4 kmh E 6.3 mph10.1 kmh 25.25 in855.1 mb 0.00 in0.0 mm 0.00 in/hr0.0 mm/hr 0.00 in0.0 mm
08:12 AM 55.8°F13.2°C 29.3°F-1.5°C 36% 4.0 mph E6.4 kmh E 6.3 mph10.1 kmh 25.25 in855.1 mb 0.00 in0.0 mm 0.00 in/hr0.0 mm/hr 0.00 in0.0 mm
08:17 AM 56.1°F13.4°C 29.5°F-1.4°C 36% 4.0 mph E6.4 kmh E 6.7 mph10.8 kmh 25.25 in855.1 mb 0.00 in0.0 mm 0.00 in/hr0.0 mm/hr 0.00 in0.0 mm
08:22 AM 56.3°F13.5°C 29.7°F-1.3°C 36% 5.0 mph E8.0 kmh E 8.3 mph13.4 kmh 25.25 in855.1 mb 0.00 in0.0 mm 0.00 in/hr0.0 mm/hr 0.00 in0.0 mm
08:27 AM 56.5°F13.6°C 29.1°F-1.6°C 35% 4.0 mph E6.4 kmh E 6.7 mph10.8 kmh 25.25 in855.1 mb 0.00 in0.0 mm 0.00 in/hr0.0 mm/hr 0.00 in0.0 mm
08:32 AM 56.3°F13.5°C 28.9°F-1.7°C 35% 4.0 mph ESE6.4 kmh ESE 6.3 mph10.1 kmh 25.25 in855.1 mb 0.00 in0.0 mm 0.00 in/hr0.0 mm/hr 0.00 in0.0 mm
08:37 AM 57.4°F14.1°C 30.0°F-1.1°C 35% 3.0 mph SE4.8 kmh SE 7.8 mph12.6 kmh 25.25 in855.1 mb 0.00 in0.0 mm 0.00 in/hr0.0 mm/hr 0.00 in0.0 mm
08:42 AM 56.1°F13.4°C 27.5°F-2.5°C 33% 4.0 mph SE6.4 kmh SE 8.3 mph13.4 kmh 25.25 in855.1 mb 0.00 in0.0 mm 0.00 in/hr0.0 mm/hr 0.00 in0.0 mm
08:47 AM 56.5°F13.6°C 26.2°F-3.2°C 31% 4.0 mph ESE6.4 kmh ESE 5.4 mph8.7 kmh 25.25 in855.1 mb 0.00 in0.0 mm 0.00 in/hr0.0 mm/hr 0.00 in0.0 mm
08:52 AM 56.5°F13.6°C 27.0°F-2.8°C 32% 4.0 mph E6.4 kmh E 6.9 mph11.1 kmh 25.25 in855.1 mb 0.00 in0.0 mm 0.00 in/hr0.0 mm/hr 0.00 in0.0 mm
08:57 AM 57.6°F14.2°C 28.8°F-1.8°C 33% 4.0 mph E6.4 kmh E 6.3 mph10.1 kmh 25.25 in855.1 mb 0.00 in0.0 mm 0.00 in/hr0.0 mm/hr 0.00 in0.0 mm
09:02 AM 57.9°F14.4°C 27.5°F-2.5°C 31% 4.0 mph E6.4 kmh E 6.7 mph10.8 kmh 25.25 in855.1 mb 0.00 in0.0 mm 0.00 in/hr0.0 mm/hr 0.00 in0.0 mm
09:07 AM 58.1°F14.5°C 26.8°F-2.9°C 30% 3.0 mph E4.8 kmh E 7.4 mph11.9 kmh 25.25 in855.1 mb 0.00 in0.0 mm 0.00 in/hr0.0 mm/hr 0.00 in0.0 mm
09:12 AM 58.1°F14.5°C 25.2°F-3.8°C 28% 2.0 mph E3.2 kmh E 6.7 mph10.8 kmh 25.25 in855.1 mb 0.00 in0.0 mm 0.00 in/hr0.0 mm/hr 0.00 in0.0 mm
09:17 AM 57.9°F14.4°C 25.9°F-3.4°C 29% 3.0 mph ENE4.8 kmh ENE 6.3 mph10.1 kmh 25.25 in855.1 mb 0.00 in0.0 mm 0.00 in/hr0.0 mm/hr 0.00 in0.0 mm
09:22 AM 57.6°F14.2°C 24.6°F-4.1°C 28% 4.0 mph ENE6.4 kmh ENE 6.7 mph10.8 kmh 25.25 in855.1 mb 0.00 in0.0 mm 0.00 in/hr0.0 mm/hr 0.00 in0.0 mm
09:27 AM 58.1°F14.5°C 25.2°F-3.8°C 28% 4.0 mph E6.4 kmh E 6.7 mph10.8 kmh 25.25 in855.1 mb 0.00 in0.0 mm 0.00 in/hr0.0 mm/hr 0.00 in0.0 mm
09:32 AM 58.8°F14.9°C 25.0°F-3.9°C 27% 3.0 mph E4.8 kmh E 5.8 mph9.3 kmh 25.25 in855.1 mb 0.00 in0.0 mm 0.00 in/hr0.0 mm/hr 0.00 in0.0 mm
09:37 AM 59.4°F15.2°C 25.3°F-3.7°C 27% 3.0 mph ENE4.8 kmh ENE 6.3 mph10.1 kmh 25.25 in855.1 mb 0.00 in0.0 mm 0.00 in/hr0.0 mm/hr 0.00 in0.0 mm
09:42 AM 59.4°F15.2°C 24.4°F-4.2°C 26% 4.0 mph E6.4 kmh E 7.4 mph11.9 kmh 25.25 in855.1 mb 0.00 in0.0 mm 0.00 in/hr0.0 mm/hr 0.00 in0.0 mm
09:47 AM 59.5°F15.3°C 23.7°F-4.6°C 25% 3.0 mph E4.8 kmh E 8.3 mph13.4 kmh 25.25 in855.1 mb 0.00 in0.0 mm 0.00 in/hr0.0 mm/hr 0.00 in0.0 mm
09:52 AM 59.5°F15.3°C 23.7°F-4.6°C 25% 3.0 mph E4.8 kmh E 6.7 mph10.8 kmh 25.25 in855.1 mb 0.00 in0.0 mm 0.00 in/hr0.0 mm/hr 0.00 in0.0 mm
09:57 AM 59.9°F15.5°C 25.0°F-3.9°C 26% 4.0 mph NE6.4 kmh NE 7.8 mph12.6 kmh 25.22 in854.0 mb 0.00 in0.0 mm 0.00 in/hr0.0 mm/hr 0.00 in0.0 mm
10:02 AM 60.4°F15.8°C 24.4°F-4.2°C 25% 4.0 mph NNE6.4 kmh NNE 7.8 mph12.6 kmh 25.22 in854.0 mb 0.00 in0.0 mm 0.00 in/hr0.0 mm/hr 0.00 in0.0 mm
10:07 AM 60.8°F16.0°C 23.7°F-4.6°C 24% 4.0 mph ENE6.4 kmh ENE 8.7 mph14.0 kmh 25.22 in854.0 mb 0.00 in0.0 mm 0.00 in/hr0.0 mm/hr 0.00 in0.0 mm
10:12 AM 60.3°F15.7°C 23.4°F-4.8°C 24% 4.0 mph ESE6.4 kmh ESE 7.8 mph12.6 kmh 25.22 in854.0 mb 0.00 in0.0 mm 0.00 in/hr0.0 mm/hr 0.00 in0.0 mm
10:17 AM 61.2°F16.2°C 24.1°F-4.4°C 24% 4.0 mph E6.4 kmh E 7.8 mph12.6 kmh 25.22 in854.0 mb 0.00 in0.0 mm 0.00 in/hr0.0 mm/hr 0.00 in0.0 mm
10:22 AM 60.3°F15.7°C 20.1°F-6.6°C 21% 6.0 mph ESE9.7 kmh ESE 13.4 mph21.6 kmh 25.22 in854.0 mb 0.00 in0.0 mm 0.00 in/hr0.0 mm/hr 0.00 in0.0 mm
10:27 AM 61.0°F16.1°C 20.8°F-6.2°C 21% 6.0 mph SE9.7 kmh SE 8.3 mph13.4 kmh 25.22 in854.0 mb 0.00 in0.0 mm 0.00 in/hr0.0 mm/hr 0.00 in0.0 mm
10:32 AM 62.1°F16.7°C 21.7°F-5.7°C 21% 4.0 mph ESE6.4 kmh ESE 8.3 mph13.4 kmh 25.22 in854.0 mb 0.00 in0.0 mm 0.00 in/hr0.0 mm/hr 0.00 in0.0 mm
10:37 AM 62.4°F16.9°C 18.3°F-7.6°C 18% 5.0 mph NE8.0 kmh NE 9.2 mph14.8 kmh 25.22 in854.0 mb 0.00 in0.0 mm 0.00 in/hr0.0 mm/hr 0.00 in0.0 mm
10:42 AM 61.9°F16.6°C 15.3°F-9.3°C 16% 5.0 mph NE8.0 kmh NE 9.2 mph14.8 kmh 25.22 in854.0 mb 0.00 in0.0 mm 0.00 in/hr0.0 mm/hr 0.00 in0.0 mm
10:47 AM 62.1°F16.7°C 15.4°F-9.2°C 16% 5.0 mph ENE8.0 kmh ENE 10.1 mph16.3 kmh 25.22 in854.0 mb 0.00 in0.0 mm 0.00 in/hr0.0 mm/hr 0.00 in0.0 mm
10:52 AM 62.4°F16.9°C 15.6°F-9.1°C 16% 4.0 mph E6.4 kmh E 11.6 mph18.7 kmh 25.22 in854.0 mb 0.00 in0.0 mm 0.00 in/hr0.0 mm/hr 0.00 in0.0 mm
10:57 AM 62.4°F16.9°C 10.9°F-11.7°C 13% 5.0 mph SE8.0 kmh SE 11.0 mph17.7 kmh 25.22 in854.0 mb 0.00 in0.0 mm 0.00 in/hr0.0 mm/hr 0.00 in0.0 mm
11:02 AM 62.1°F16.7°C 10.6°F-11.9°C 13% 6.0 mph S9.7 kmh S 10.1 mph16.3 kmh 25.22 in854.0 mb 0.00 in0.0 mm 0.00 in/hr0.0 mm/hr 0.00 in0.0 mm
11:07 AM 63.0°F17.2°C 11.3°F-11.5°C 13% 6.0 mph SE9.7 kmh SE 10.5 mph16.9 kmh 25.22 in854.0 mb 0.00 in0.0 mm 0.00 in/hr0.0 mm/hr 0.00 in0.0 mm
11:12 AM 63.0°F17.2°C 11.3°F-11.5°C 13% 6.0 mph ESE9.7 kmh ESE 8.7 mph14.0 kmh 25.22 in854.0 mb 0.00 in0.0 mm 0.00 in/hr0.0 mm/hr 0.00 in0.0 mm
11:17 AM 64.4°F18.0°C 12.6°F-10.8°C 13% 5.0 mph ESE8.0 kmh ESE 11.0 mph17.7 kmh 25.22 in854.0 mb 0.00 in0.0 mm 0.00 in/hr0.0 mm/hr 0.00 in0.0 mm
11:22 AM 63.1°F17.3°C 11.5°F-11.4°C 13% 6.0 mph ENE9.7 kmh ENE 10.1 mph16.3 kmh 25.22 in854.0 mb 0.00 in0.0 mm 0.00 in/hr0.0 mm/hr 0.00 in0.0 mm
11:28 AM 63.5°F17.5°C 8.1°F-13.3°C 11% 5.0 mph NNE8.0 kmh NNE 7.8 mph12.6 kmh 25.22 in854.0 mb 0.00 in0.0 mm 0.00 in/hr0.0 mm/hr 0.00 in0.0 mm
11:33 AM 63.3°F17.4°C 7.9°F-13.4°C 11% 4.0 mph NNW6.4 kmh NNW 11.6 mph18.7 kmh 25.22 in854.0 mb 0.00 in0.0 mm 0.00 in/hr0.0 mm/hr 0.00 in0.0 mm
11:38 AM 64.0°F17.8°C -5537.2°C - 4.0 mph SE6.4 kmh SE 7.4 mph11.9 kmh 25.22 in854.0 mb 0.00 in0.0 mm 0.00 in/hr0.0 mm/hr 0.00 in0.0 mm
11:43 AM 64.6°F18.1°C -5537.2°C - 3.0 mph ESE4.8 kmh ESE 6.7 mph10.8 kmh 25.22 in854.0 mb 0.00 in0.0 mm 0.00 in/hr0.0 mm/hr 0.00 in0.0 mm
11:48 AM 64.6°F18.1°C -5537.2°C - 4.0 mph ESE6.4 kmh ESE 6.9 mph11.1 kmh 25.22 in854.0 mb 0.00 in0.0 mm 0.00 in/hr0.0 mm/hr 0.00 in0.0 mm
11:58 AM 64.4°F18.0°C -5537.2°C - 4.0 mph ENE6.4 kmh ENE 7.8 mph12.6 kmh 25.19 in853.0 mb 0.00 in0.0 mm 0.00 in/hr0.0 mm/hr 0.00 in0.0 mm
12:03 PM 65.3°F18.5°C -5537.2°C - 3.0 mph E4.8 kmh E 4.9 mph7.9 kmh 25.19 in853.0 mb 0.00 in0.0 mm 0.00 in/hr0.0 mm/hr 0.00 in0.0 mm
12:08 PM 64.6°F18.1°C -5537.2°C - 4.0 mph ESE6.4 kmh ESE 7.4 mph11.9 kmh 25.19 in853.0 mb 0.00 in0.0 mm 0.00 in/hr0.0 mm/hr 0.00 in0.0 mm
12:13 PM 64.8°F18.2°C -5537.2°C - 5.0 mph E8.0 kmh E 8.3 mph13.4 kmh 25.19 in853.0 mb 0.00 in0.0 mm 0.00 in/hr0.0 mm/hr 0.00 in0.0 mm
12:18 PM 64.6°F18.1°C -5537.2°C - 5.0 mph ENE8.0 kmh ENE 8.7 mph14.0 kmh 25.19 in853.0 mb 0.00 in0.0 mm 0.00 in/hr0.0 mm/hr 0.00 in0.0 mm
12:23 PM 64.4°F18.0°C -5537.2°C - 6.0 mph E9.7 kmh E 9.2 mph14.8 kmh 25.19 in853.0 mb 0.00 in0.0 mm 0.00 in/hr0.0 mm/hr 0.00 in0.0 mm
12:28 PM 64.8°F18.2°C -5537.2°C - 6.0 mph ESE9.7 kmh ESE 8.7 mph14.0 kmh 25.19 in853.0 mb 0.00 in0.0 mm 0.00 in/hr0.0 mm/hr 0.00 in0.0 mm
12:33 PM 65.7°F18.7°C -5537.2°C - 4.0 mph SE6.4 kmh SE 6.7 mph10.8 kmh 25.19 in853.0 mb 0.00 in0.0 mm 0.00 in/hr0.0 mm/hr 0.00 in0.0 mm
12:38 PM 66.2°F19.0°C -5537.2°C - 3.0 mph E4.8 kmh E 7.4 mph11.9 kmh 25.19 in853.0 mb 0.00 in0.0 mm 0.00 in/hr0.0 mm/hr 0.00 in0.0 mm
12:43 PM 66.6°F19.2°C -5537.2°C - 4.0 mph E6.4 kmh E 7.4 mph11.9 kmh 25.19 in853.0 mb 0.00 in0.0 mm 0.00 in/hr0.0 mm/hr 0.00 in0.0 mm
12:48 PM 66.4°F19.1°C -5537.2°C - 5.0 mph SE8.0 kmh SE 8.3 mph13.4 kmh 25.19 in853.0 mb 0.00 in0.0 mm 0.00 in/hr0.0 mm/hr 0.00 in0.0 mm
12:53 PM 67.3°F19.6°C -5537.2°C - 4.0 mph SSE6.4 kmh SSE 5.4 mph8.7 kmh 25.19 in853.0 mb 0.00 in0.0 mm 0.00 in/hr0.0 mm/hr 0.00 in0.0 mm
12:58 PM 67.5°F19.7°C -5537.2°C - 3.0 mph SSE4.8 kmh SSE 6.9 mph11.1 kmh 25.19 in853.0 mb 0.00 in0.0 mm 0.00 in/hr0.0 mm/hr 0.00 in0.0 mm
01:03 PM 67.5°F19.7°C -5537.2°C - 5.0 mph E8.0 kmh E 13.0 mph20.9 kmh 25.19 in853.0 mb 0.00 in0.0 mm 0.00 in/hr0.0 mm/hr 0.00 in0.0 mm
01:08 PM 67.5°F19.7°C -5537.2°C - 7.0 mph N11.3 kmh N 13.4 mph21.6 kmh 25.19 in853.0 mb 0.00 in0.0 mm 0.00 in/hr0.0 mm/hr 0.00 in0.0 mm
01:13 PM 67.8°F19.9°C -5537.2°C - 7.0 mph NW11.3 kmh NW 12.1 mph19.5 kmh 25.19 in853.0 mb 0.00 in0.0 mm 0.00 in/hr0.0 mm/hr 0.00 in0.0 mm
01:18 PM 66.9°F19.4°C -5537.2°C - 5.0 mph W8.0 kmh W 10.5 mph16.9 kmh 25.19 in853.0 mb 0.00 in0.0 mm 0.00 in/hr0.0 mm/hr 0.00 in0.0 mm
01:23 PM 68.0°F20.0°C -5537.2°C - 4.0 mph W6.4 kmh W 14.8 mph23.8 kmh 25.19 in853.0 mb 0.00 in0.0 mm 0.00 in/hr0.0 mm/hr 0.00 in0.0 mm
01:29 PM 68.5°F20.3°C -5537.2°C - 6.0 mph W9.7 kmh W 15.4 mph24.8 kmh 25.19 in853.0 mb 0.00 in0.0 mm 0.00 in/hr0.0 mm/hr 0.00 in0.0 mm
01:34 PM 69.1°F20.6°C -5537.2°C - 7.0 mph WNW11.3 kmh WNW 11.2 mph18.0 kmh 25.19 in853.0 mb 0.00 in0.0 mm 0.00 in/hr0.0 mm/hr 0.00 in0.0 mm
01:39 PM 69.4°F20.8°C -5537.2°C - 8.0 mph W12.9 kmh W 16.8 mph27.0 kmh 25.19 in853.0 mb 0.00 in0.0 mm 0.00 in/hr0.0 mm/hr 0.00 in0.0 mm
01:49 PM 69.1°F20.6°C -5537.2°C - 11.0 mph NNW17.7 kmh NNW 18.6 mph29.9 kmh 25.16 in852.0 mb 0.00 in0.0 mm 0.00 in/hr0.0 mm/hr 0.00 in0.0 mm
01:54 PM 68.9°F20.5°C -5537.2°C - 12.0 mph NW19.3 kmh NW 17.2 mph27.7 kmh 25.16 in852.0 mb 0.00 in0.0 mm 0.00 in/hr0.0 mm/hr 0.00 in0.0 mm
01:59 PM 68.5°F20.3°C -5537.2°C - 11.0 mph NW17.7 kmh NW 16.3 mph26.2 kmh 25.16 in852.0 mb 0.00 in0.0 mm 0.00 in/hr0.0 mm/hr 0.00 in0.0 mm
02:04 PM 68.9°F20.5°C -5537.2°C - 10.0 mph NW16.1 kmh NW 16.3 mph26.2 kmh 25.16 in852.0 mb 0.00 in0.0 mm 0.00 in/hr0.0 mm/hr 0.00 in0.0 mm
02:09 PM 68.9°F20.5°C -5537.2°C - 11.0 mph NNW17.7 kmh NNW 16.8 mph27.0 kmh 25.16 in852.0 mb 0.00 in0.0 mm 0.00 in/hr0.0 mm/hr 0.00 in0.0 mm
02:14 PM 69.8°F21.0°C -5537.2°C - 10.0 mph NW16.1 kmh NW 15.4 mph24.8 kmh 25.16 in852.0 mb 0.00 in0.0 mm 0.00 in/hr0.0 mm/hr 0.00 in0.0 mm
02:19 PM 68.7°F20.4°C -5537.2°C - 8.0 mph NNW12.9 kmh NNW 14.3 mph23.0 kmh 25.16 in852.0 mb 0.00 in0.0 mm 0.00 in/hr0.0 mm/hr 0.00 in0.0 mm
02:24 PM 68.9°F20.5°C -5537.2°C - 10.0 mph NNW16.1 kmh NNW 15.2 mph24.5 kmh 25.16 in852.0 mb 0.00 in0.0 mm 0.00 in/hr0.0 mm/hr 0.00 in0.0 mm
02:29 PM 69.8°F21.0°C -5537.2°C - 9.0 mph NNW14.5 kmh NNW 15.2 mph24.5 kmh 25.16 in852.0 mb 0.00 in0.0 mm 0.00 in/hr0.0 mm/hr 0.00 in0.0 mm
02:34 PM 68.9°F20.5°C -5537.2°C - 8.0 mph NNW12.9 kmh NNW 13.4 mph21.6 kmh 25.16 in852.0 mb 0.00 in0.0 mm 0.00 in/hr0.0 mm/hr 0.00 in0.0 mm
02:39 PM 69.3°F20.7°C -5537.2°C - 9.0 mph NNW14.5 kmh NNW 14.3 mph23.0 kmh 25.16 in852.0 mb 0.00 in0.0 mm 0.00 in/hr0.0 mm/hr 0.00 in0.0 mm
02:44 PM 69.8°F21.0°C -5537.2°C - 8.0 mph NW12.9 kmh NW 11.0 mph17.7 kmh 25.16 in852.0 mb 0.00 in0.0 mm 0.00 in/hr0.0 mm/hr 0.00 in0.0 mm
02:49 PM 69.3°F20.7°C -5537.2°C - 5.0 mph WNW8.0 kmh WNW 11.2 mph18.0 kmh 25.16 in852.0 mb 0.00 in0.0 mm 0.00 in/hr0.0 mm/hr 0.00 in0.0 mm
02:54 PM 69.4°F20.8°C -5537.2°C - 4.0 mph WSW6.4 kmh WSW 12.1 mph19.5 kmh 25.16 in852.0 mb 0.00 in0.0 mm 0.00 in/hr0.0 mm/hr 0.00 in0.0 mm
02:59 PM 70.0°F21.1°C -5537.2°C - 5.0 mph W8.0 kmh W 11.2 mph18.0 kmh 25.13 in851.0 mb 0.00 in0.0 mm 0.00 in/hr0.0 mm/hr 0.00 in0.0 mm
03:04 PM 70.3°F21.3°C -5537.2°C - 7.0 mph WNW11.3 kmh WNW 13.0 mph20.9 kmh 25.13 in851.0 mb 0.00 in0.0 mm 0.00 in/hr0.0 mm/hr 0.00 in0.0 mm
03:09 PM 71.1°F21.7°C -5537.2°C - 8.0 mph NW12.9 kmh NW 11.2 mph18.0 kmh 25.13 in851.0 mb 0.00 in0.0 mm 0.00 in/hr0.0 mm/hr 0.00 in0.0 mm
03:14 PM 71.6°F22.0°C -5537.2°C - 9.0 mph NW14.5 kmh NW 15.4 mph24.8 kmh 25.13 in851.0 mb 0.00 in0.0 mm 0.00 in/hr0.0 mm/hr 0.00 in0.0 mm
03:19 PM 70.0°F21.1°C -5537.2°C - 9.0 mph NW14.5 kmh NW 11.2 mph18.0 kmh 25.13 in851.0 mb 0.00 in0.0 mm 0.00 in/hr0.0 mm/hr 0.00 in0.0 mm
03:24 PM 69.3°F20.7°C -5537.2°C - 7.0 mph NNW11.3 kmh NNW 10.5 mph16.9 kmh 25.13 in851.0 mb 0.00 in0.0 mm 0.00 in/hr0.0 mm/hr 0.00 in0.0 mm
03:29 PM 70.0°F21.1°C -5537.2°C - 6.0 mph NNW9.7 kmh NNW 11.0 mph17.7 kmh 25.13 in851.0 mb 0.00 in0.0 mm 0.00 in/hr0.0 mm/hr 0.00 in0.0 mm
03:34 PM 70.3°F21.3°C -5537.2°C - 6.0 mph NW9.7 kmh NW 11.0 mph17.7 kmh 25.13 in851.0 mb 0.00 in0.0 mm 0.00 in/hr0.0 mm/hr 0.00 in0.0 mm
03:39 PM 70.0°F21.1°C -5537.2°C - 6.0 mph NW9.7 kmh NW 7.8 mph12.6 kmh 25.13 in851.0 mb 0.00 in0.0 mm 0.00 in/hr0.0 mm/hr 0.00 in0.0 mm
03:44 PM 70.5°F21.4°C -5537.2°C - 5.0 mph N8.0 kmh N 9.6 mph15.4 kmh 25.13 in851.0 mb 0.00 in0.0 mm 0.00 in/hr0.0 mm/hr 0.00 in0.0 mm
03:49 PM 70.7°F21.5°C -5537.2°C - 4.0 mph N6.4 kmh N 5.8 mph9.3 kmh 25.13 in851.0 mb 0.00 in0.0 mm 0.00 in/hr0.0 mm/hr 0.00 in0.0 mm
03:54 PM 70.0°F21.1°C -5537.2°C - 3.0 mph NE4.8 kmh NE 14.8 mph23.8 kmh 25.13 in851.0 mb 0.00 in0.0 mm 0.00 in/hr0.0 mm/hr 0.00 in0.0 mm
03:59 PM 70.7°F21.5°C -5537.2°C - 4.0 mph NE6.4 kmh NE 6.3 mph10.1 kmh 25.13 in851.0 mb 0.00 in0.0 mm 0.00 in/hr0.0 mm/hr 0.00 in0.0 mm
04:04 PM 71.4°F21.9°C -5537.2°C - 5.0 mph NNW8.0 kmh NNW 11.0 mph17.7 kmh 25.13 in851.0 mb 0.00 in0.0 mm 0.00 in/hr0.0 mm/hr 0.00 in0.0 mm
04:09 PM 71.4°F21.9°C -5537.2°C - 8.0 mph NW12.9 kmh NW 15.2 mph24.5 kmh 25.13 in851.0 mb 0.00 in0.0 mm 0.00 in/hr0.0 mm/hr 0.00 in0.0 mm
04:14 PM 70.5°F21.4°C -5537.2°C - 8.0 mph N12.9 kmh N 11.2 mph18.0 kmh 25.13 in851.0 mb 0.00 in0.0 mm 0.00 in/hr0.0 mm/hr 0.00 in0.0 mm
04:19 PM 70.0°F21.1°C -5537.2°C - 6.0 mph N9.7 kmh N 14.3 mph23.0 kmh 25.13 in851.0 mb 0.00 in0.0 mm 0.00 in/hr0.0 mm/hr 0.00 in0.0 mm
04:25 PM 71.1°F21.7°C -5537.2°C - 4.0 mph NNE6.4 kmh NNE 8.7 mph14.0 kmh 25.13 in851.0 mb 0.00 in0.0 mm 0.00 in/hr0.0 mm/hr 0.00 in0.0 mm
04:30 PM 70.9°F21.6°C -5537.2°C - 4.0 mph NNE6.4 kmh NNE 9.2 mph14.8 kmh 25.13 in851.0 mb 0.00 in0.0 mm 0.00 in/hr0.0 mm/hr 0.00 in0.0 mm
04:35 PM 70.3°F21.3°C -5537.2°C - 5.0 mph NNE8.0 kmh NNE 8.7 mph14.0 kmh 25.13 in851.0 mb 0.00 in0.0 mm 0.00 in/hr0.0 mm/hr 0.00 in0.0 mm
04:40 PM 70.7°F21.5°C -5537.2°C - 6.0 mph N9.7 kmh N 11.2 mph18.0 kmh 25.13 in851.0 mb 0.00 in0.0 mm 0.00 in/hr0.0 mm/hr 0.00 in0.0 mm
04:45 PM 70.5°F21.4°C -5537.2°C - 6.0 mph N9.7 kmh N 7.8 mph12.6 kmh 25.13 in851.0 mb 0.00 in0.0 mm 0.00 in/hr0.0 mm/hr 0.00 in0.0 mm
04:50 PM 70.7°F21.5°C -5537.2°C - 4.0 mph NW6.4 kmh NW 8.3 mph13.4 kmh 25.13 in851.0 mb 0.00 in0.0 mm 0.00 in/hr0.0 mm/hr 0.00 in0.0 mm
04:55 PM 70.7°F21.5°C -5537.2°C - 3.0 mph WNW4.8 kmh WNW 6.3 mph10.1 kmh 25.13 in851.0 mb 0.00 in0.0 mm 0.00 in/hr0.0 mm/hr 0.00 in0.0 mm
05:00 PM 71.6°F22.0°C -5537.2°C - 2.0 mph W3.2 kmh W 6.7 mph10.8 kmh 25.13 in851.0 mb 0.00 in0.0 mm 0.00 in/hr0.0 mm/hr 0.00 in0.0 mm
05:05 PM 71.6°F22.0°C -5537.2°C - 3.0 mph SW4.8 kmh SW 6.9 mph11.1 kmh 25.13 in851.0 mb 0.00 in0.0 mm 0.00 in/hr0.0 mm/hr 0.00 in0.0 mm
05:10 PM 71.2°F21.8°C -5537.2°C - 3.0 mph S4.8 kmh S 6.7 mph10.8 kmh 25.13 in851.0 mb 0.00 in0.0 mm 0.00 in/hr0.0 mm/hr 0.00 in0.0 mm
05:15 PM 71.1°F21.7°C -5537.2°C - 4.0 mph S6.4 kmh S 9.2 mph14.8 kmh 25.13 in851.0 mb 0.00 in0.0 mm 0.00 in/hr0.0 mm/hr 0.00 in0.0 mm
05:20 PM 71.6°F22.0°C -5537.2°C - 5.0 mph SSW8.0 kmh SSW 6.7 mph10.8 kmh 25.13 in851.0 mb 0.00 in0.0 mm 0.00 in/hr0.0 mm/hr 0.00 in0.0 mm
05:25 PM 71.8°F22.1°C -5537.2°C - 4.0 mph SW6.4 kmh SW 6.3 mph10.1 kmh 25.13 in851.0 mb 0.00 in0.0 mm 0.00 in/hr0.0 mm/hr 0.00 in0.0 mm
05:30 PM 72.0°F22.2°C -5537.2°C - 3.0 mph SW4.8 kmh SW 5.8 mph9.3 kmh 25.13 in851.0 mb 0.00 in0.0 mm 0.00 in/hr0.0 mm/hr 0.00 in0.0 mm
05:35 PM 71.6°F22.0°C -5537.2°C - 2.0 mph SSW3.2 kmh SSW 4.5 mph7.2 kmh 25.13 in851.0 mb 0.00 in0.0 mm 0.00 in/hr0.0 mm/hr 0.00 in0.0 mm
05:40 PM 70.7°F21.5°C -5537.2°C - 2.0 mph WSW3.2 kmh WSW 6.3 mph10.1 kmh 25.13 in851.0 mb 0.00 in0.0 mm 0.00 in/hr0.0 mm/hr 0.00 in0.0 mm
05:45 PM 70.3°F21.3°C -5537.2°C - 4.0 mph N6.4 kmh N 5.8 mph9.3 kmh 25.13 in851.0 mb 0.00 in0.0 mm 0.00 in/hr0.0 mm/hr 0.00 in0.0 mm
05:50 PM 70.3°F21.3°C -5537.2°C - 4.0 mph N6.4 kmh N 5.8 mph9.3 kmh 25.13 in851.0 mb 0.00 in0.0 mm 0.00 in/hr0.0 mm/hr 0.00 in0.0 mm
05:55 PM 70.3°F21.3°C -5537.2°C - 3.0 mph N4.8 kmh N 5.4 mph8.7 kmh 25.13 in851.0 mb 0.00 in0.0 mm 0.00 in/hr0.0 mm/hr 0.00 in0.0 mm
06:00 PM 70.5°F21.4°C -5537.2°C - 1.0 mph N1.6 kmh N 4.5 mph7.2 kmh 25.13 in851.0 mb 0.00 in0.0 mm 0.00 in/hr0.0 mm/hr 0.00 in0.0 mm
06:05 PM 70.2°F21.2°C -5537.2°C - 2.0 mph NNE3.2 kmh NNE 5.4 mph8.7 kmh 25.13 in851.0 mb 0.00 in0.0 mm 0.00 in/hr0.0 mm/hr 0.00 in0.0 mm
06:10 PM 70.0°F21.1°C -5537.2°C - 3.0 mph NE4.8 kmh NE 4.9 mph7.9 kmh 25.13 in851.0 mb 0.00 in0.0 mm 0.00 in/hr0.0 mm/hr 0.00 in0.0 mm
06:15 PM 69.8°F21.0°C -5537.2°C - 3.0 mph E4.8 kmh E 5.4 mph8.7 kmh 25.13 in851.0 mb 0.00 in0.0 mm 0.00 in/hr0.0 mm/hr 0.00 in0.0 mm
06:20 PM 69.6°F20.9°C -5537.2°C - 2.0 mph E3.2 kmh E 4.9 mph7.9 kmh 25.13 in851.0 mb 0.00 in0.0 mm 0.00 in/hr0.0 mm/hr 0.00 in0.0 mm
06:25 PM 69.3°F20.7°C -5537.2°C - 2.0 mph ESE3.2 kmh ESE 4.9 mph7.9 kmh 25.13 in851.0 mb 0.00 in0.0 mm 0.00 in/hr0.0 mm/hr 0.00 in0.0 mm
06:30 PM 68.9°F20.5°C -5537.2°C - 2.0 mph E3.2 kmh E 4.5 mph7.2 kmh 25.13 in851.0 mb 0.00 in0.0 mm 0.00 in/hr0.0 mm/hr 0.00 in0.0 mm
06:35 PM 68.7°F20.4°C -5537.2°C - 3.0 mph E4.8 kmh E 4.5 mph7.2 kmh 25.13 in851.0 mb 0.00 in0.0 mm 0.00 in/hr0.0 mm/hr 0.00 in0.0 mm
06:40 PM 68.5°F20.3°C -5537.2°C - 2.0 mph E3.2 kmh E 4.5 mph7.2 kmh 25.13 in851.0 mb 0.00 in0.0 mm 0.00 in/hr0.0 mm/hr 0.00 in0.0 mm
06:45 PM 67.5°F19.7°C -5537.2°C - 2.0 mph SE3.2 kmh SE 5.4 mph8.7 kmh 25.13 in851.0 mb 0.00 in0.0 mm 0.00 in/hr0.0 mm/hr 0.00 in0.0 mm
06:50 PM 66.4°F19.1°C -5537.2°C - 2.0 mph SSE3.2 kmh SSE 5.4 mph8.7 kmh 25.13 in851.0 mb 0.00 in0.0 mm 0.00 in/hr0.0 mm/hr 0.00 in0.0 mm
06:55 PM 65.8°F18.8°C -5537.2°C - 1.0 mph SE1.6 kmh SE 3.6 mph5.8 kmh 25.13 in851.0 mb 0.00 in0.0 mm 0.00 in/hr0.0 mm/hr 0.00 in0.0 mm
07:00 PM 65.5°F18.6°C -5537.2°C - 1.0 mph SSE1.6 kmh SSE 4.0 mph6.4 kmh 25.13 in851.0 mb 0.00 in0.0 mm 0.00 in/hr0.0 mm/hr 0.00 in0.0 mm
07:05 PM 65.5°F18.6°C -5537.2°C - 2.0 mph SE3.2 kmh SE 4.5 mph7.2 kmh 25.13 in851.0 mb 0.00 in0.0 mm 0.00 in/hr0.0 mm/hr 0.00 in0.0 mm
07:10 PM 65.8°F18.8°C -5537.2°C - 3.0 mph ESE4.8 kmh ESE 3.6 mph5.8 kmh 25.13 in851.0 mb 0.00 in0.0 mm 0.00 in/hr0.0 mm/hr 0.00 in0.0 mm
07:15 PM 65.5°F18.6°C -5537.2°C - 2.0 mph ESE3.2 kmh ESE 4.0 mph6.4 kmh 25.13 in851.0 mb 0.00 in0.0 mm 0.00 in/hr0.0 mm/hr 0.00 in0.0 mm
07:20 PM 65.1°F18.4°C -5537.2°C - Calm Calm -- 25.13 in851.0 mb 0.00 in0.0 mm 0.00 in/hr0.0 mm/hr 0.00 in0.0 mm
07:26 PM 64.4°F18.0°C -5537.2°C - Calm Calm -- 25.13 in851.0 mb 0.00 in0.0 mm 0.00 in/hr0.0 mm/hr 0.00 in0.0 mm
07:31 PM 64.6°F18.1°C -5537.2°C - 1.0 mph ESE1.6 kmh ESE 4.0 mph6.4 kmh 25.13 in851.0 mb 0.00 in0.0 mm 0.00 in/hr0.0 mm/hr 0.00 in0.0 mm
07:36 PM 64.8°F18.2°C -5537.2°C - 1.0 mph ESE1.6 kmh ESE 3.1 mph5.0 kmh 25.13 in851.0 mb 0.00 in0.0 mm 0.00 in/hr0.0 mm/hr 0.00 in0.0 mm
07:41 PM 64.2°F17.9°C 12.4°F-10.9°C 13% 2.0 mph E3.2 kmh E 5.8 mph9.3 kmh 25.13 in851.0 mb 0.00 in0.0 mm 0.00 in/hr0.0 mm/hr 0.00 in0.0 mm
07:46 PM 64.0°F17.8°C 12.2°F-11.0°C 13% 2.0 mph ENE3.2 kmh ENE 3.1 mph5.0 kmh 25.13 in851.0 mb 0.00 in0.0 mm 0.00 in/hr0.0 mm/hr 0.00 in0.0 mm
07:51 PM 63.7°F17.6°C 12.0°F-11.1°C 13% Calm Calm 3.1 mph5.0 kmh 25.13 in851.0 mb 0.00 in0.0 mm 0.00 in/hr0.0 mm/hr 0.00 in0.0 mm
07:56 PM 63.1°F17.3°C 11.5°F-11.4°C 13% Calm Calm -- 25.13 in851.0 mb 0.00 in0.0 mm 0.00 in/hr0.0 mm/hr 0.00 in0.0 mm
08:01 PM 63.0°F17.2°C 11.3°F-11.5°C 13% Calm Calm 3.6 mph5.8 kmh 25.13 in851.0 mb 0.00 in0.0 mm 0.00 in/hr0.0 mm/hr 0.00 in0.0 mm
08:06 PM 62.6°F17.0°C 11.1°F-11.6°C 13% 1.0 mph NE1.6 kmh NE 3.6 mph5.8 kmh 25.13 in851.0 mb 0.00 in0.0 mm 0.00 in/hr0.0 mm/hr 0.00 in0.0 mm
08:11 PM 62.1°F16.7°C 10.6°F-11.9°C 13% Calm Calm -- 25.13 in851.0 mb 0.00 in0.0 mm 0.00 in/hr0.0 mm/hr 0.00 in0.0 mm
08:16 PM 61.5°F16.4°C 11.8°F-11.2°C 14% Calm Calm 4.5 mph7.2 kmh 25.13 in851.0 mb 0.00 in0.0 mm 0.00 in/hr0.0 mm/hr 0.00 in0.0 mm
08:21 PM 61.5°F16.4°C 11.8°F-11.2°C 14% 2.0 mph ENE3.2 kmh ENE 4.9 mph7.9 kmh 25.13 in851.0 mb 0.00 in0.0 mm 0.00 in/hr0.0 mm/hr 0.00 in0.0 mm
08:26 PM 61.3°F16.3°C 11.8°F-11.2°C 14% 2.0 mph ENE3.2 kmh ENE 4.5 mph7.2 kmh 25.13 in851.0 mb 0.00 in0.0 mm 0.00 in/hr0.0 mm/hr 0.00 in0.0 mm
08:31 PM 61.7°F16.5°C 12.0°F-11.1°C 14% 2.0 mph NE3.2 kmh NE 7.8 mph12.6 kmh 25.13 in851.0 mb 0.00 in0.0 mm 0.00 in/hr0.0 mm/hr 0.00 in0.0 mm
08:36 PM 62.1°F16.7°C 10.6°F-11.9°C 13% 4.0 mph WSW6.4 kmh WSW 8.3 mph13.4 kmh 25.13 in851.0 mb 0.00 in0.0 mm 0.00 in/hr0.0 mm/hr 0.00 in0.0 mm
08:41 PM 61.9°F16.6°C 10.6°F-11.9°C 13% 4.0 mph SW6.4 kmh SW 6.7 mph10.8 kmh 25.16 in852.0 mb 0.00 in0.0 mm 0.00 in/hr0.0 mm/hr 0.00 in0.0 mm
08:46 PM 61.7°F16.5°C 10.4°F-12.0°C 13% 4.0 mph SW6.4 kmh SW 6.7 mph10.8 kmh 25.16 in852.0 mb 0.00 in0.0 mm 0.00 in/hr0.0 mm/hr 0.00 in0.0 mm
08:51 PM 61.7°F16.5°C 12.0°F-11.1°C 14% 5.0 mph SW8.0 kmh SW 6.9 mph11.1 kmh 25.16 in852.0 mb 0.00 in0.0 mm 0.00 in/hr0.0 mm/hr 0.00 in0.0 mm
08:56 PM 61.5°F16.4°C 11.8°F-11.2°C 14% 4.0 mph SW6.4 kmh SW 4.9 mph7.9 kmh 25.16 in852.0 mb 0.00 in0.0 mm 0.00 in/hr0.0 mm/hr 0.00 in0.0 mm
09:01 PM 61.3°F16.3°C 14.7°F-9.6°C 16% 3.0 mph SW4.8 kmh SW 5.8 mph9.3 kmh 25.16 in852.0 mb 0.00 in0.0 mm 0.00 in/hr0.0 mm/hr 0.00 in0.0 mm
09:06 PM 61.2°F16.2°C 14.7°F-9.6°C 16% 3.0 mph SW4.8 kmh SW 4.9 mph7.9 kmh 25.16 in852.0 mb 0.00 in0.0 mm 0.00 in/hr0.0 mm/hr 0.00 in0.0 mm
09:16 PM 60.6°F15.9°C 14.2°F-9.9°C 16% 2.0 mph SSW3.2 kmh SSW 7.8 mph12.6 kmh 25.16 in852.0 mb 0.00 in0.0 mm 0.00 in/hr0.0 mm/hr 0.00 in0.0 mm
09:21 PM 61.7°F16.5°C 15.1°F-9.4°C 16% 4.0 mph SW6.4 kmh SW 10.1 mph16.3 kmh 25.16 in852.0 mb 0.00 in0.0 mm 0.00 in/hr0.0 mm/hr 0.00 in0.0 mm
09:26 PM 62.4°F16.9°C 10.9°F-11.7°C 13% 6.0 mph WSW9.7 kmh WSW 10.1 mph16.3 kmh 25.16 in852.0 mb 0.00 in0.0 mm 0.00 in/hr0.0 mm/hr 0.00 in0.0 mm
09:31 PM 62.4°F16.9°C 10.9°F-11.7°C 13% 6.0 mph WSW9.7 kmh WSW 10.5 mph16.9 kmh 25.16 in852.0 mb 0.00 in0.0 mm 0.00 in/hr0.0 mm/hr 0.00 in0.0 mm
09:36 PM 61.9°F16.6°C 10.6°F-11.9°C 13% 6.0 mph WSW9.7 kmh WSW 10.1 mph16.3 kmh 25.16 in852.0 mb 0.00 in0.0 mm 0.00 in/hr0.0 mm/hr 0.00 in0.0 mm
09:41 PM 62.2°F16.8°C 10.8°F-11.8°C 13% 7.0 mph WSW11.3 kmh WSW 12.1 mph19.5 kmh 25.16 in852.0 mb 0.00 in0.0 mm 0.00 in/hr0.0 mm/hr 0.00 in0.0 mm
09:56 PM 61.2°F16.2°C 11.7°F-11.3°C 14% 4.0 mph SW6.4 kmh SW 6.7 mph10.8 kmh 25.16 in852.0 mb 0.00 in0.0 mm 0.00 in/hr0.0 mm/hr 0.00 in0.0 mm
10:01 PM 60.8°F16.0°C 11.3°F-11.5°C 14% 4.0 mph SW6.4 kmh SW 6.3 mph10.1 kmh 25.16 in852.0 mb 0.00 in0.0 mm 0.00 in/hr0.0 mm/hr 0.00 in0.0 mm
10:06 PM 61.3°F16.3°C 11.8°F-11.2°C 14% 5.0 mph SW8.0 kmh SW 10.5 mph16.9 kmh 25.16 in852.0 mb 0.00 in0.0 mm 0.00 in/hr0.0 mm/hr 0.00 in0.0 mm
10:11 PM 61.7°F16.5°C 10.4°F-12.0°C 13% 6.0 mph SW9.7 kmh SW 10.5 mph16.9 kmh 25.16 in852.0 mb 0.00 in0.0 mm 0.00 in/hr0.0 mm/hr 0.00 in0.0 mm
10:16 PM 62.1°F16.7°C 10.6°F-11.9°C 13% 6.0 mph WSW9.7 kmh WSW 8.7 mph14.0 kmh 25.16 in852.0 mb 0.00 in0.0 mm 0.00 in/hr0.0 mm/hr 0.00 in0.0 mm
10:21 PM 61.7°F16.5°C 12.0°F-11.1°C 14% 5.0 mph WSW8.0 kmh WSW 9.2 mph14.8 kmh 25.16 in852.0 mb 0.00 in0.0 mm 0.00 in/hr0.0 mm/hr 0.00 in0.0 mm
10:26 PM 61.3°F16.3°C 11.8°F-11.2°C 14% 6.0 mph WSW9.7 kmh WSW 11.0 mph17.7 kmh 25.16 in852.0 mb 0.00 in0.0 mm 0.00 in/hr0.0 mm/hr 0.00 in0.0 mm
10:31 PM 61.7°F16.5°C 12.0°F-11.1°C 14% 6.0 mph WNW9.7 kmh WNW 8.3 mph13.4 kmh 25.16 in852.0 mb 0.00 in0.0 mm 0.00 in/hr0.0 mm/hr 0.00 in0.0 mm
10:36 PM 62.2°F16.8°C 10.8°F-11.8°C 13% 4.0 mph NW6.4 kmh NW 4.9 mph7.9 kmh 25.16 in852.0 mb 0.00 in0.0 mm 0.00 in/hr0.0 mm/hr 0.00 in0.0 mm
10:42 PM 61.3°F16.3°C 11.8°F-11.2°C 14% 3.0 mph N4.8 kmh N 4.5 mph7.2 kmh 25.16 in852.0 mb 0.00 in0.0 mm 0.00 in/hr0.0 mm/hr 0.00 in0.0 mm
10:47 PM 57.9°F14.4°C 16.0°F-8.9°C 19% 6.0 mph NNE9.7 kmh NNE 12.1 mph19.5 kmh 25.16 in852.0 mb 0.00 in0.0 mm 0.00 in/hr0.0 mm/hr 0.00 in0.0 mm
10:52 PM 56.3°F13.5°C 21.0°F-6.1°C 25% 8.0 mph NE12.9 kmh NE 9.2 mph14.8 kmh 25.16 in852.0 mb 0.00 in0.0 mm 0.00 in/hr0.0 mm/hr 0.00 in0.0 mm
10:57 PM 56.8°F13.8°C 22.3°F-5.4°C 26% 6.0 mph NE9.7 kmh NE 6.7 mph10.8 kmh 25.16 in852.0 mb 0.00 in0.0 mm 0.00 in/hr0.0 mm/hr 0.00 in0.0 mm
11:02 PM 56.3°F13.5°C 21.9°F-5.6°C 26% 4.0 mph NE6.4 kmh NE 5.4 mph8.7 kmh 25.16 in852.0 mb 0.00 in0.0 mm 0.00 in/hr0.0 mm/hr 0.00 in0.0 mm
11:07 PM 55.6°F13.1°C 22.1°F-5.5°C 27% 1.0 mph NE1.6 kmh NE 2.7 mph4.3 kmh 25.16 in852.0 mb 0.00 in0.0 mm 0.00 in/hr0.0 mm/hr 0.00 in0.0 mm
11:12 PM 55.6°F13.1°C 22.1°F-5.5°C 27% Calm Calm 3.1 mph5.0 kmh 25.16 in852.0 mb 0.00 in0.0 mm 0.00 in/hr0.0 mm/hr 0.00 in0.0 mm
11:17 PM 56.1°F13.4°C 23.5°F-4.7°C 28% 2.0 mph ENE3.2 kmh ENE 4.5 mph7.2 kmh 25.16 in852.0 mb 0.00 in0.0 mm 0.00 in/hr0.0 mm/hr 0.00 in0.0 mm
11:22 PM 55.9°F13.3°C 24.1°F-4.4°C 29% 2.0 mph NE3.2 kmh NE 4.0 mph6.4 kmh 25.16 in852.0 mb 0.00 in0.0 mm 0.00 in/hr0.0 mm/hr 0.00 in0.0 mm
11:27 PM 55.6°F13.1°C 24.6°F-4.1°C 30% 3.0 mph NE4.8 kmh NE 4.5 mph7.2 kmh 25.19 in853.0 mb 0.00 in0.0 mm 0.00 in/hr0.0 mm/hr 0.00 in0.0 mm
11:32 PM 55.0°F12.8°C 25.0°F-3.9°C 31% 2.0 mph NE3.2 kmh NE 3.6 mph5.8 kmh 25.19 in853.0 mb 0.00 in0.0 mm 0.00 in/hr0.0 mm/hr 0.00 in0.0 mm
11:37 PM 54.0°F12.2°C 25.5°F-3.6°C 33% 2.0 mph NE3.2 kmh NE 4.5 mph7.2 kmh 25.19 in853.0 mb 0.00 in0.0 mm 0.00 in/hr0.0 mm/hr 0.00 in0.0 mm
11:42 PM 54.5°F12.5°C 26.1°F-3.3°C 33% 2.0 mph NE3.2 kmh NE 3.6 mph5.8 kmh 25.19 in853.0 mb 0.00 in0.0 mm 0.00 in/hr0.0 mm/hr 0.00 in0.0 mm
11:47 PM 54.5°F12.5°C 26.1°F-3.3°C 33% 1.0 mph NE1.6 kmh NE 3.6 mph5.8 kmh 25.19 in853.0 mb 0.00 in0.0 mm 0.00 in/hr0.0 mm/hr 0.00 in0.0 mm
11:52 PM 54.3°F12.4°C 25.2°F-3.8°C 32% 1.0 mph NE1.6 kmh NE 3.1 mph5.0 kmh 25.19 in853.0 mb 0.00 in0.0 mm 0.00 in/hr0.0 mm/hr 0.00 in0.0 mm
11:57 PM 54.1°F12.3°C 25.0°F-3.9°C 32% Calm Calm 2.7 mph4.3 kmh 25.19 in853.0 mb 0.00 in0.0 mm 0.00 in/hr0.0 mm/hr 0.00 in0.0 mm